Time;durP1;ratioP1;P1;durP2;ratioP2;P2;SDS_P1;SDS_P2;PMS_P1;PMS_P2;Temp;Humidity;BMP_temperature;BMP_pressure;BME280_temperature;BME280_humidity;BME280_pressure;Samples;Min_cycle;Max_cycle;Signal;HPM_P1;HPM_P2
2021/04/08 04:15:40;;;;;;;2.95;1.30;;;-1.70;88.10;;;;;;5091798;28;20567;-67
2021/04/08 04:18:11;;;;;;;4.88;1.35;;;-1.60;87.10;;;;;;5092440;28;20020;-67
2021/04/08 04:20:37;;;;;;;2.40;1.15;;;-1.50;86.60;;;;;;5092204;28;20133;-66
2021/04/08 04:23:04;;;;;;;3.13;1.05;;;-1.50;86.40;;;;;;5092324;28;20110;-66
2021/04/08 04:25:30;;;;;;;6.07;1.23;;;-1.40;86.10;;;;;;5092419;28;20032;-66
2021/04/08 04:27:56;;;;;;;6.57;1.20;;;-1.20;85.80;;;;;;5092522;28;20141;-65
2021/04/08 04:30:22;;;;;;;7.57;1.20;;;-1.00;85.20;;;;;;5092364;28;20419;-64
2021/04/08 04:32:48;;;;;;;9.38;1.13;;;-0.60;83.80;;;;;;5092505;28;20031;-63
2021/04/08 04:35:17;;;;;;;3.58;1.27;;;-0.30;85.20;;;;;;5091994;28;20384;-63
2021/04/08 04:37:42;;;;;;;5.18;1.20;;;0.30;85.40;;;;;;5092581;28;20111;-68
2021/04/08 04:40:09;;;;;;;3.78;1.30;;;0.60;78.60;;;;;;5092442;28;20166;-69
2021/04/08 04:42:35;;;;;;;18.85;1.42;;;0.70;77.10;;;;;;5092329;28;20024;-71
2021/04/08 04:45:03;;;;;;;24.08;1.67;;;0.90;76.30;;;;;;5092117;28;20036;-71
2021/04/08 04:47:28;;;;;;;18.15;1.73;;;1.30;75.40;;;;;;5092073;28;20028;-74
2021/04/08 04:49:54;;;;;;;7.30;1.30;;;1.60;74.00;;;;;;5092054;28;20027;-73
2021/04/08 04:52:20;;;;;;;6.80;1.10;;;1.80;72.60;;;;;;5092159;28;20487;-69
2021/04/08 04:54:46;;;;;;;6.95;1.23;;;2.10;71.90;;;;;;5091979;28;20371;-75
2021/04/08 04:57:12;;;;;;;4.25;1.23;;;2.40;70.70;;;;;;5092211;28;20020;-77
2021/04/08 04:59:37;;;;;;;4.72;1.33;;;2.70;70.00;;;;;;5091650;28;20510;-76
2021/04/08 05:02:03;;;;;;;1.35;1.00;;;3.00;68.60;;;;;;5091885;28;20059;-76
2021/04/08 05:04:29;;;;;;;6.65;1.05;;;3.30;67.40;;;;;;5091899;28;20111;-76
2021/04/08 05:06:55;;;;;;;9.27;1.40;;;3.50;66.80;;;;;;5091527;28;20452;-76
2021/04/08 05:09:20;;;;;;;16.08;1.70;;;3.70;65.90;;;;;;5091641;28;20420;-76
2021/04/08 05:11:46;;;;;;;16.27;1.20;;;3.90;65.60;;;;;;5092085;28;20024;-77
2021/04/08 05:14:12;;;;;;;6.05;1.20;;;4.10;64.50;;;;;;5092066;28;20032;-71
2021/04/08 05:16:38;;;;;;;7.47;1.05;;;4.30;64.10;;;;;;5091449;28;20384;-71
2021/04/08 05:19:04;;;;;;;5.15;0.90;;;4.50;62.90;;;;;;5092055;28;20031;-68
2021/04/08 05:21:29;;;;;;;4.85;0.98;;;4.80;64.10;;;;;;5091874;28;20510;-68
2021/04/08 05:23:55;;;;;;;6.38;1.00;;;5.80;64.10;;;;;;5091862;28;20460;-68
2021/04/08 05:26:21;;;;;;;3.67;1.02;;;5.80;60.40;;;;;;5091537;28;20031;-68
2021/04/08 05:28:46;;;;;;;8.25;1.30;;;5.80;60.00;;;;;;5091892;28;20028;-70
2021/04/08 05:31:12;;;;;;;5.38;1.10;;;5.90;59.50;;;;;;5091782;28;20625;-70
2021/04/08 05:33:38;;;;;;;6.22;1.10;;;5.80;59.20;;;;;;5091795;28;20031;-71
2021/04/08 05:36:04;;;;;;;11.18;1.27;;;6.00;59.20;;;;;;5091798;28;20020;-70
2021/04/08 05:38:30;;;;;;;4.85;1.10;;;6.20;58.40;;;;;;5091486;28;20028;-70
2021/04/08 05:40:56;;;;;;;6.03;1.40;;;6.30;58.20;;;;;;5091776;28;20024;-71
2021/04/08 05:43:21;;;;;;;5.63;1.00;;;6.30;57.60;;;;;;5091388;28;20115;-70
2021/04/08 05:45:47;;;;;;;5.68;0.88;;;6.30;57.50;;;;;;5091381;28;20020;-71
2021/04/08 05:48:16;;;;;;;0.98;0.50;;;6.30;57.20;;;;;;5091432;28;20032;-71
2021/04/08 05:50:42;;;;;;;5.60;0.90;;;6.50;57.30;;;;;;5091350;28;20031;-71
2021/04/08 05:53:07;;;;;;;4.32;1.10;;;6.60;57.00;;;;;;5091512;28;20032;-69
2021/04/08 05:55:34;;;;;;;12.63;1.88;;;6.70;56.60;;;;;;5091440;28;20020;-71
2021/04/08 05:57:59;;;;;;;3.72;0.88;;;6.80;56.50;;;;;;5094726;28;20042;-70
2021/04/08 06:00:25;;;;;;;3.63;0.80;;;7.30;66.10;;;;;;5094910;28;20115;-72
2021/04/08 06:02:51;;;;;;;10.95;1.35;;;7.80;56.50;;;;;;5095070;28;20035;-72
2021/04/08 06:05:17;;;;;;;14.55;1.35;;;7.70;55.40;;;;;;5094987;28;20035;-73
2021/04/08 06:07:43;;;;;;;8.50;1.40;;;7.60;55.60;;;;;;5095312;28;20024;-73
2021/04/08 06:10:10;;;;;;;4.65;1.40;;;7.40;55.90;;;;;;5076806;28;20392;-68
2021/04/08 06:12:40;;;;;;;13.93;1.13;;;7.90;61.40;;;;;;5094730;28;20021;-69
2021/04/08 06:15:06;;;;;;;21.60;1.55;;;9.70;66.90;;;;;;5094568;28;20483;-69
2021/04/08 06:17:32;;;;;;;5.43;0.90;;;9.60;53.10;;;;;;5094654;28;20069;-68
2021/04/08 06:19:57;;;;;;;3.85;0.55;;;9.10;53.00;;;;;;5094850;28;20097;-69
2021/04/08 06:22:23;;;;;;;10.10;1.00;;;8.70;53.10;;;;;;5094510;28;20377;-68
2021/04/08 06:24:49;;;;;;;4.95;1.83;;;8.30;52.80;;;;;;5094515;28;20042;-69
2021/04/08 06:27:15;;;;;;;9.27;0.90;;;8.00;53.30;;;;;;5094463;28;20020;-68
2021/04/08 06:29:41;;;;;;;3.85;0.70;;;7.90;53.90;;;;;;5094386;28;20020;-69
2021/04/08 06:32:07;;;;;;;6.30;1.08;;;7.90;53.70;;;;;;5094643;28;20016;-69
2021/04/08 06:34:33;;;;;;;5.18;1.10;;;7.90;54.00;;;;;;5094131;28;20534;-69
2021/04/08 06:36:59;;;;;;;11.57;1.08;;;7.60;53.70;;;;;;5094238;28;20055;-69
2021/04/08 06:39:26;;;;;;;7.75;1.17;;;7.60;54.10;;;;;;5094397;28;20111;-69
2021/04/08 06:41:52;;;;;;;27.05;2.05;;;8.90;63.90;;;;;;5094536;28;20031;-68
2021/04/08 06:44:24;;;;;;;2.63;1.00;;;9.00;53.90;;;;;;5093941;28;20032;-71
2021/04/08 06:46:57;;;;;;;4.93;1.00;;;8.70;53.40;;;;;;5094439;28;20137;-72
2021/04/08 06:49:39;;;;;;;6.25;0.90;;;8.40;53.10;;;;;;5094007;28;20012;-73
2021/04/08 06:52:06;;;;;;;4.63;1.00;;;8.10;53.10;;;;;;5094026;28;20060;-72
2021/04/08 06:54:33;;;;;;;7.18;1.13;;;7.90;53.40;;;;;;5093513;28;20020;-71
2021/04/08 06:57:00;;;;;;;9.57;1.13;;;7.80;53.50;;;;;;5094089;28;20020;-72
2021/04/08 06:59:26;;;;;;;3.80;0.95;;;7.60;53.70;;;;;;5093774;28;20020;-72
2021/04/08 07:01:52;;;;;;;2.97;0.70;;;7.40;53.80;;;;;;5093817;28;20051;-73
2021/04/08 07:04:18;;;;;;;6.18;0.90;;;7.30;53.80;;;;;;5093413;28;20051;-74
2021/04/08 07:06:43;;;;;;;4.63;0.82;;;7.10;54.10;;;;;;5093855;28;20028;-76
2021/04/08 07:09:11;;;;;;;6.70;0.80;;;7.10;54.40;;;;;;5092384;28;20032;-71
2021/04/08 07:11:39;;;;;;;4.38;0.82;;;7.20;56.40;;;;;;5093770;28;20081;-74
2021/04/08 07:14:07;;;;;;;10.23;0.98;;;7.80;56.10;;;;;;5092928;28;20387;-74
2021/04/08 07:16:33;;;;;;;8.23;0.98;;;7.80;58.60;;;;;;5093302;28;20162;-73
2021/04/08 07:18:59;;;;;;;3.47;1.00;;;8.40;56.30;;;;;;5093275;28;20039;-74
2021/04/08 07:21:33;;;;;;;5.20;0.88;;;8.20;54.00;;;;;;5092770;28;20016;-71
2021/04/08 07:24:10;;;;;;;1.60;0.80;;;8.00;54.00;;;;;;5092944;28;20391;-72
2021/04/08 07:26:57;;;;;;;3.70;0.90;;;7.90;53.80;;;;;;5092725;28;20035;-72
2021/04/08 07:29:44;;;;;;;4.53;0.70;;;7.80;53.70;;;;;;5093487;28;20054;-72
2021/04/08 07:32:12;;;;;;;5.70;0.90;;;7.70;54.00;;;;;;5091083;28;20032;-72
2021/04/08 07:34:44;;;;;;;3.80;0.70;;;7.60;54.00;;;;;;5093070;28;20472;-68
2021/04/08 07:37:11;;;;;;;2.92;1.05;;;7.60;54.10;;;;;;5093614;28;20031;-65
2021/04/08 07:39:42;;;;;;;3.58;0.60;;;7.50;56.60;;;;;;5093162;28;20110;-66
2021/04/08 07:42:13;;;;;;;3.80;0.80;;;7.70;61.60;;;;;;5093172;28;20031;-66
2021/04/08 07:44:43;;;;;;;1.70;0.80;;;7.80;60.70;;;;;;5092794;28;20157;-67
2021/04/08 07:47:16;;;;;;;7.05;0.82;;;7.90;59.30;;;;;;5093059;28;20020;-66
2021/04/08 07:49:42;;;;;;;11.40;1.05;;;7.80;56.80;;;;;;5093033;28;20383;-66
2021/04/08 07:52:20;;;;;;;3.10;0.80;;;7.80;59.00;;;;;;5093153;28;20027;-68
2021/04/08 07:55:05;;;;;;;10.50;0.90;;;7.90;57.90;;;;;;5095025;28;20023;-67
2021/04/08 07:57:51;;;;;;;2.67;0.90;;;7.90;57.70;;;;;;5072400;28;20601;-67
2021/04/08 08:00:20;;;;;;;2.08;0.60;;;8.00;58.30;;;;;;5084572;28;20036;-67
2021/04/08 08:02:45;;;;;;;3.22;0.75;;;8.00;57.60;;;;;;5092485;28;20020;-68
2021/04/08 08:05:41;;;;;;;1.52;0.60;;;8.00;57.60;;;;;;5091648;28;20032;-69
2021/04/08 08:08:15;;;;;;;4.15;0.80;;;7.90;55.20;;;;;;5087982;28;20060;-69
2021/04/08 08:10:43;;;;;;;3.83;0.70;;;7.80;55.20;;;;;;5092340;28;20031;-68
2021/04/08 08:13:28;;;;;;;3.22;0.80;;;7.60;55.10;;;;;;5092022;28;20024;-68
2021/04/08 08:15:56;;;;;;;2.42;0.63;;;7.60;55.50;;;;;;5091643;28;20112;-66
2021/04/08 08:18:37;;;;;;;1.10;0.75;;;7.50;55.40;;;;;;5091953;28;20024;-67
2021/04/08 08:21:05;;;;;;;2.55;1.10;;;7.40;55.20;;;;;;5092110;28;20047;-67
2021/04/08 08:23:51;;;;;;;2.75;0.75;;;7.40;55.60;;;;;;5092047;28;20111;-66
2021/04/08 08:26:33;;;;;;;1.98;0.70;;;7.40;55.80;;;;;;5071355;28;20123;-66
2021/04/08 08:29:30;;;;;;;4.03;0.70;;;7.40;54.50;;;;;;5091618;28;20431;-69
2021/04/08 08:32:08;;;;;;;1.08;0.70;;;7.40;55.60;;;;;;5092116;28;20020;-70
2021/04/08 08:34:34;;;;;;;7.50;1.17;;;7.30;55.30;;;;;;5091547;28;20024;-68
2021/04/08 08:37:03;;;;;;;7.10;0.98;;;7.20;54.50;;;;;;5091626;28;20077;-75
2021/04/08 08:39:32;;;;;;;3.08;0.70;;;7.20;54.20;;;;;;5091536;28;20547;-71
2021/04/08 08:41:59;;;;;;;6.05;1.00;;;8.00;68.10;;;;;;5091803;28;20020;-71
2021/04/08 08:44:26;;;;;;;3.13;0.90;;;8.30;54.80;;;;;;5091471;28;20111;-71
2021/04/08 08:47:22;;;;;;;2.85;0.60;;;7.90;53.10;;;;;;5091433;28;20547;-71
2021/04/08 08:50:01;;;;;;;15.52;1.48;;;7.60;53.10;;;;;;5091447;28;20028;-71
2021/04/08 08:52:33;;;;;;;1.88;0.98;;;7.30;53.50;;;;;;5091900;28;20024;-72
2021/04/08 08:55:01;;;;;;;7.68;0.93;;;7.20;53.80;;;;;;5088713;28;20027;-71
2021/04/08 08:57:27;;;;;;;8.88;1.15;;;7.10;53.50;;;;;;5090823;28;20044;-71
2021/04/08 08:59:55;;;;;;;6.45;1.13;;;7.10;53.80;;;;;;5091177;28;20039;-71
2021/04/08 09:02:21;;;;;;;10.43;1.30;;;7.10;54.00;;;;;;5091541;28;20024;-71
2021/04/08 09:04:47;;;;;;;5.88;0.80;;;6.90;53.10;;;;;;5091052;28;20028;-71
2021/04/08 09:07:14;;;;;;;12.27;1.15;;;6.90;53.80;;;;;;5091155;28;20397;-71
2021/04/08 09:09:51;;;;;;;4.10;0.65;;;6.90;53.30;;;;;;5091644;28;20103;-70
2021/04/08 09:12:19;;;;;;;2.97;0.82;;;7.00;56.90;;;;;;5091878;28;20265;-68
2021/04/08 09:14:46;;;;;;;1.88;0.73;;;7.10;53.80;;;;;;5091125;28;20024;-67
2021/04/08 09:17:13;;;;;;;3.17;0.50;;;7.00;53.60;;;;;;5091309;28;20047;-66
2021/04/08 09:19:39;;;;;;;2.83;0.73;;;6.90;53.20;;;;;;5090365;28;20717;-67
2021/04/08 09:22:10;;;;;;;3.55;0.70;;;6.90;53.40;;;;;;5091175;28;20028;-67
2021/04/08 09:24:40;;;;;;;1.52;0.70;;;6.80;52.80;;;;;;5090763;28;20036;-67
2021/04/08 09:27:09;;;;;;;3.92;0.50;;;6.80;53.50;;;;;;5091041;28;20062;-65
2021/04/08 09:29:42;;;;;;;4.32;0.70;;;6.80;53.10;;;;;;5091026;28;20418;-65
2021/04/08 09:32:24;;;;;;;4.28;0.70;;;6.70;52.80;;;;;;5090889;28;20035;-66
2021/04/08 09:35:08;;;;;;;9.10;0.90;;;6.70;53.20;;;;;;5094249;28;20161;-66
2021/04/08 09:37:46;;;;;;;2.72;0.70;;;6.70;53.00;;;;;;5092386;28;20124;-66
2021/04/08 09:40:24;;;;;;;4.88;0.90;;;6.60;53.10;;;;;;5094981;28;20032;-67
2021/04/08 09:42:52;;;;;;;0.75;0.60;;;6.60;53.60;;;;;;5094860;28;20031;-67
2021/04/08 09:45:19;;;;;;;5.38;0.80;;;6.60;53.60;;;;;;5094798;28;20032;-68
2021/04/08 09:47:45;;;;;;;4.85;0.88;;;6.60;53.40;;;;;;5094686;28;20020;-67
2021/04/08 09:50:51;;;;;;;2.63;0.70;;;6.60;53.40;;;;;;5095108;28;20032;-67
2021/04/08 09:53:19;;;;;;;5.22;0.80;;;6.60;53.50;;;;;;5083666;28;20052;-67
2021/04/08 09:55:55;;;;;;;6.43;0.90;;;6.60;53.10;;;;;;5094416;28;20024;-67
2021/04/08 09:58:32;;;;;;;7.55;0.60;;;6.70;53.80;;;;;;5094507;28;20031;-66
2021/04/08 10:01:04;;;;;;;1.40;0.63;;;6.70;53.40;;;;;;5094775;28;20103;-66
2021/04/08 10:03:47;;;;;;;9.18;0.93;;;6.70;53.60;;;;;;5094603;28;20070;-69
2021/04/08 10:06:24;;;;;;;1.58;0.50;;;6.70;53.30;;;;;;5094329;28;20103;-69
2021/04/08 10:08:50;;;;;;;7.22;0.80;;;6.70;52.90;;;;;;5094542;28;20028;-70
2021/04/08 10:11:30;;;;;;;1.05;0.65;;;6.70;52.30;;;;;;5094783;28;20020;-67
2021/04/08 10:13:56;;;;;;;3.13;0.70;;;6.70;52.50;;;;;;5094520;28;20024;-67
2021/04/08 10:16:22;;;;;;;7.18;0.80;;;6.70;52.90;;;;;;5093304;28;20048;-67
2021/04/08 10:18:59;;;;;;;4.50;0.63;;;6.70;52.70;;;;;;5093534;28;20035;-74
2021/04/08 10:21:25;;;;;;;1.60;0.82;;;6.70;52.50;;;;;;5093820;28;20028;-67
2021/04/08 10:23:52;;;;;;;7.95;1.40;;;6.70;52.20;;;;;;5093515;28;20059;-66
2021/04/08 10:26:23;;;;;;;3.55;0.60;;;6.60;51.60;;;;;;5093848;28;20024;-67
2021/04/08 10:28:57;;;;;;;5.45;0.65;;;6.70;52.30;;;;;;5093875;28;20114;-66
2021/04/08 10:31:28;;;;;;;0.90;0.47;;;6.80;57.80;;;;;;5093796;28;20028;-66
2021/04/08 10:34:07;;;;;;;2.28;0.65;;;7.10;58.80;;;;;;5094266;28;20039;-66
2021/04/08 10:36:39;;;;;;;7.63;0.82;;;7.50;63.10;;;;;;5093535;28;20016;-67
2021/04/08 10:39:08;;;;;;;2.28;0.40;;;7.80;64.30;;;;;;5093593;28;20028;-67
2021/04/08 10:41:35;;;;;;;3.78;0.60;;;8.20;62.30;;;;;;5093619;28;20530;-68
2021/04/08 10:44:26;;;;;;;2.63;0.60;;;8.30;58.40;;;;;;5093582;28;20057;-65
2021/04/08 10:46:53;;;;;;;2.90;0.50;;;8.40;57.90;;;;;;5093657;28;20031;-65
2021/04/08 10:49:23;;;;;;;2.70;0.60;;;8.50;57.40;;;;;;5093417;28;20027;-65
2021/04/08 10:51:49;;;;;;;5.25;0.60;;;8.50;54.50;;;;;;5093493;28;20032;-65
2021/04/08 10:54:15;;;;;;;2.83;0.70;;;8.60;57.10;;;;;;5093555;28;20509;-67
2021/04/08 10:56:45;;;;;;;9.63;1.13;;;8.70;55.40;;;;;;5093171;28;20107;-65
2021/04/08 10:59:20;;;;;;;3.88;0.70;;;8.90;57.20;;;;;;5093592;28;20028;-66
2021/04/08 11:01:47;;;;;;;1.08;0.50;;;9.00;55.00;;;;;;5093256;28;20032;-66
2021/04/08 11:04:13;;;;;;;3.58;0.73;;;9.00;55.00;;;;;;5093491;28;20055;-68
2021/04/08 11:06:39;;;;;;;3.28;1.20;;;9.10;53.60;;;;;;5092993;28;20495;-68
2021/04/08 11:09:05;;;;;;;1.98;0.50;;;8.80;49.10;;;;;;5092271;28;20028;-68
2021/04/08 11:11:31;;;;;;;0.75;0.50;;;8.30;47.50;;;;;;5093303;28;20028;-68
2021/04/08 11:13:57;;;;;;;7.07;0.60;;;8.00;48.30;;;;;;5093551;28;20035;-68
2021/04/08 11:16:25;;;;;;;1.08;0.40;;;7.90;49.10;;;;;;5092846;28;20048;-68
2021/04/08 11:18:51;;;;;;;6.78;0.82;;;7.80;49.50;;;;;;5093084;28;20020;-68
2021/04/08 11:21:17;;;;;;;1.05;0.52;;;7.70;49.30;;;;;;5092438;28;20036;-66
2021/04/08 11:23:43;;;;;;;2.08;0.68;;;8.30;57.90;;;;;;5092790;28;20020;-68
2021/04/08 11:26:09;;;;;;;7.07;0.60;;;8.30;48.10;;;;;;5092740;28;20438;-66
2021/04/08 11:28:42;;;;;;;1.83;0.60;;;8.00;49.00;;;;;;5092353;28;20028;-67
2021/04/08 11:31:16;;;;;;;9.27;1.33;;;8.40;58.10;;;;;;5093238;28;20453;-64
2021/04/08 11:33:42;;;;;;;6.45;1.02;;;9.40;60.10;;;;;;5093031;28;20052;-64
2021/04/08 11:36:21;;;;;;;1.48;0.65;;;10.40;61.30;;;;;;5092744;28;20153;-64
2021/04/08 11:38:47;;;;;;;2.30;0.60;;;11.30;60.00;;;;;;5092654;28;20109;-64
2021/04/08 11:41:13;;;;;;;5.00;0.70;;;11.80;58.90;;;;;;5092609;28;20055;-64
2021/04/08 11:43:48;;;;;;;4.70;0.80;;;12.20;57.70;;;;;;5092372;28;20558;-66
2021/04/08 11:46:33;;;;;;;2.25;0.73;;;12.70;57.30;;;;;;5092563;28;20040;-67
2021/04/08 11:49:00;;;;;;;2.50;0.50;;;13.10;56.10;;;;;;5092497;28;20505;-68
2021/04/08 11:51:31;;;;;;;2.63;0.60;;;13.00;51.50;;;;;;5092847;28;20028;-68
2021/04/08 11:54:16;;;;;;;7.00;0.80;;;12.00;46.70;;;;;;5092198;28;20032;-66
2021/04/08 11:56:44;;;;;;;4.70;0.40;;;11.40;51.80;;;;;;5092638;28;20411;-66
2021/04/08 11:59:23;;;;;;;15.50;0.85;;;11.80;50.60;;;;;;5092818;28;20028;-70
2021/04/08 12:01:54;;;;;;;2.78;0.40;;;11.50;50.90;;;;;;5092722;28;20107;-70
2021/04/08 12:04:22;;;;;;;5.80;0.98;;;11.00;46.10;;;;;;5092837;28;20137;-70
2021/04/08 12:07:04;;;;;;;1.77;0.63;;;10.50;45.70;;;;;;5092314;28;20058;-67
2021/04/08 12:09:48;;;;;;;0.55;0.40;;;10.20;47.50;;;;;;5092814;28;20047;-69
2021/04/08 12:12:14;;;;;;;1.63;0.40;;;9.80;46.50;;;;;;5092663;28;20024;-69
2021/04/08 12:14:59;;;;;;;1.48;0.50;;;9.30;44.30;;;;;;5092056;28;20032;-68
2021/04/08 12:17:26;;;;;;;3.08;0.90;;;9.00;46.10;;;;;;5092667;28;20356;-68
2021/04/08 12:19:53;;;;;;;4.10;0.57;;;9.80;58.20;;;;;;5092543;28;20031;-68
2021/04/08 12:22:19;;;;;;;2.78;0.40;;;10.20;52.00;;;;;;5091984;28;20024;-67
2021/04/08 12:25:11;;;;;;;4.57;0.50;;;10.50;53.10;;;;;;5093361;28;20032;-68
2021/04/08 12:27:37;;;;;;;1.70;0.80;;;10.10;47.20;;;;;;5092420;28;20055;-69
2021/04/08 12:30:06;;;;;;;5.32;0.50;;;9.60;45.50;;;;;;5074126;28;20480;-69
2021/04/08 12:32:32;;;;;;;4.18;0.68;;;9.10;45.40;;;;;;5092488;28;20039;-69
2021/04/08 12:34:58;;;;;;;3.92;0.60;;;8.80;45.10;;;;;;5091627;28;20020;-69
2021/04/08 12:37:25;;;;;;;10.15;0.77;;;9.40;56.90;;;;;;5091805;28;20021;-68
2021/04/08 12:39:51;;;;;;;7.03;0.95;;;10.20;53.20;;;;;;5092488;28;20043;-68
2021/04/08 12:42:17;;;;;;;10.38;0.98;;;9.70;46.10;;;;;;5092072;28;20035;-69
2021/04/08 12:44:43;;;;;;;2.28;0.40;;;9.00;44.10;;;;;;5091860;28;20032;-69
2021/04/08 12:47:10;;;;;;;6.18;0.70;;;8.40;44.20;;;;;;5091948;28;20391;-69
2021/04/08 12:49:36;;;;;;;2.45;0.50;;;8.00;44.30;;;;;;5092264;28;20028;-69
2021/04/08 12:52:01;;;;;;;5.32;0.65;;;7.70;44.90;;;;;;5092261;28;20124;-69
2021/04/08 12:54:30;;;;;;;2.00;0.40;;;7.60;45.50;;;;;;5092232;28;20440;-68
2021/04/08 12:56:56;;;;;;;1.10;0.40;;;7.60;46.20;;;;;;5091892;28;20031;-69
2021/04/08 12:59:21;;;;;;;3.00;0.57;;;7.60;45.30;;;;;;5091624;28;20085;-67
2021/04/08 13:01:47;;;;;;;5.40;0.68;;;7.70;48.60;;;;;;5091568;28;20435;-68
2021/04/08 13:04:13;;;;;;;6.47;0.50;;;7.80;49.30;;;;;;5090949;28;20030;-67
2021/04/08 13:06:38;;;;;;;1.98;0.60;;;8.30;51.90;;;;;;5094415;28;20038;-67
2021/04/08 13:09:04;;;;;;;3.22;0.80;;;8.20;46.90;;;;;;5095873;28;20020;-67
2021/04/08 13:11:30;;;;;;;1.27;0.40;;;8.00;46.70;;;;;;5095745;28;20032;-67
2021/04/08 13:13:56;;;;;;;4.78;0.60;;;7.80;45.70;;;;;;5095638;28;20047;-68
2021/04/08 13:16:21;;;;;;;0.95;0.43;;;7.70;46.10;;;;;;5095317;28;20427;-66
2021/04/08 13:18:47;;;;;;;2.47;0.47;;;7.70;45.80;;;;;;5095578;28;20467;-66
2021/04/08 13:21:13;;;;;;;0.50;0.50;;;7.50;44.80;;;;;;5095392;28;20123;-68
2021/04/08 13:23:38;;;;;;;1.35;0.50;;;7.50;48.40;;;;;;5095003;28;20110;-68
2021/04/08 13:26:04;;;;;;;1.27;0.50;;;7.60;47.50;;;;;;5095545;28;20137;-67
2021/04/08 13:28:30;;;;;;;2.67;0.50;;;7.70;47.00;;;;;;5095476;28;20369;-68
2021/04/08 13:30:55;;;;;;;2.05;0.70;;;7.60;47.40;;;;;;5095442;28;20036;-68
2021/04/08 13:33:21;;;;;;;0.77;0.50;;;7.60;45.60;;;;;;5095238;28;20085;-68
2021/04/08 13:35:47;;;;;;;2.45;0.50;;;7.50;46.10;;;;;;5095556;28;20032;-68
2021/04/08 13:38:12;;;;;;;0.95;0.40;;;7.50;46.80;;;;;;5095009;28;20455;-68
2021/04/08 13:40:38;;;;;;;2.63;0.68;;;7.90;51.50;;;;;;5095126;28;20036;-68
2021/04/08 13:43:04;;;;;;;0.73;0.40;;;7.90;47.30;;;;;;5095131;28;20024;-68
2021/04/08 13:45:30;;;;;;;3.45;0.40;;;7.90;47.60;;;;;;5094943;28;20031;-67
2021/04/08 13:47:56;;;;;;;1.15;0.52;;;7.90;46.70;;;;;;5094894;28;20028;-68
2021/04/08 13:50:22;;;;;;;2.85;0.50;;;7.90;47.20;;;;;;5095001;28;20024;-69
2021/04/08 13:52:48;;;;;;;1.50;0.50;;;7.80;47.00;;;;;;5094895;28;20016;-68
2021/04/08 13:55:16;;;;;;;4.10;0.60;;;7.70;45.10;;;;;;5094926;28;20032;-68
2021/04/08 13:57:42;;;;;;;3.72;0.50;;;7.70;46.30;;;;;;5094721;28;20469;-67
2021/04/08 14:00:15;;;;;;;4.85;0.80;;;7.80;46.70;;;;;;5094071;28;20039;-67
2021/04/08 14:02:42;;;;;;;4.57;0.70;;;7.80;45.70;;;;;;5091716;28;20020;-68
2021/04/08 14:05:12;;;;;;;5.28;0.80;;;7.80;45.60;;;;;;5091755;28;20032;-68
2021/04/08 14:07:38;;;;;;;;;;;7.90;45.90;;;;;;5094820;28;20067;-66
2021/04/08 14:10:05;;;;;;;8.05;0.82;;;7.90;45.30;;;;;;5094645;28;19908;-68
2021/04/08 14:12:31;;;;;;;5.93;0.63;;;7.80;45.80;;;;;;5094541;28;20012;-67
2021/04/08 14:14:57;;;;;;;1.95;0.70;;;7.90;45.70;;;;;;5093995;28;20552;-66
2021/04/08 14:17:23;;;;;;;16.42;1.77;;;7.80;45.50;;;;;;5092133;28;20064;-71
2021/04/08 14:19:48;;;;;;;2.25;0.60;;;7.80;44.80;;;;;;5093199;28;20019;-70
2021/04/08 14:22:14;;;;;;;1.83;1.58;;;7.80;45.00;;;;;;5093222;28;20032;-71
2021/04/08 14:24:40;;;;;;;6.78;1.10;;;7.80;44.80;;;;;;5092940;28;20032;-71
2021/04/08 14:27:06;;;;;;;6.53;0.57;;;7.90;45.30;;;;;;5093084;28;20016;-68
2021/04/08 14:29:32;;;;;;;0.85;0.50;;;7.80;45.20;;;;;;5098434;28;20486;-70
2021/04/08 14:31:58;;;;;;;5.65;0.80;;;7.80;45.10;;;;;;5092671;28;20028;-71
2021/04/08 14:34:24;;;;;;;3.83;0.63;;;7.90;45.60;;;;;;5092818;28;20077;-69
2021/04/08 14:36:50;;;;;;;4.88;0.80;;;8.50;54.40;;;;;;5092132;28;20027;-70
2021/04/08 14:39:16;;;;;;;6.03;0.70;;;10.00;56.90;;;;;;5091535;28;20062;-70
2021/04/08 14:41:42;;;;;;;6.90;0.70;;;10.00;46.10;;;;;;5092633;28;20484;-70
2021/04/08 14:44:08;;;;;;;13.55;1.63;;;9.50;43.40;;;;;;5092938;28;20487;-70
2021/04/08 14:46:34;;;;;;;3.95;0.80;;;9.10;44.20;;;;;;5092725;28;20490;-71
2021/04/08 14:49:00;;;;;;;3.70;0.60;;;8.90;46.10;;;;;;5092600;28;20028;-70
2021/04/08 14:51:25;;;;;;;9.98;1.80;;;8.80;44.10;;;;;;5092806;28;20048;-70
2021/04/08 14:53:51;;;;;;;19.67;1.17;;;8.50;44.00;;;;;;5093885;28;20501;-71
2021/04/08 14:56:17;;;;;;;45.33;2.72;;;8.30;44.10;;;;;;5092620;28;20479;-69
2021/04/08 14:58:43;;;;;;;20.88;1.00;;;8.20;44.10;;;;;;5092556;28;20063;-70
2021/04/08 15:01:08;;;;;;;18.67;1.80;;;8.10;44.00;;;;;;5092258;28;20030;-69
2021/04/08 15:03:34;;;;;;;7.57;0.80;;;8.00;43.90;;;;;;5092568;28;20039;-69
2021/04/08 15:06:00;;;;;;;5.35;0.57;;;7.90;43.80;;;;;;5092354;28;20493;-70
2021/04/08 15:08:26;;;;;;;1.73;0.55;;;8.10;49.10;;;;;;5092015;28;20043;-72
2021/04/08 15:10:51;;;;;;;2.95;0.40;;;8.50;48.50;;;;;;5091839;28;20056;-73
2021/04/08 15:13:17;;;;;;;3.08;0.63;;;8.40;44.20;;;;;;5092167;28;20016;-72
2021/04/08 15:15:43;;;;;;;7.70;0.60;;;8.20;44.20;;;;;;5064950;28;781063;-72
2021/04/08 15:18:09;;;;;;;1.75;0.50;;;8.00;44.40;;;;;;5093013;28;20597;-72
2021/04/08 15:20:36;;;;;;;3.90;0.60;;;7.90;44.10;;;;;;5093281;28;20028;-73
2021/04/08 15:23:03;;;;;;;5.22;0.80;;;7.80;43.80;;;;;;5090319;28;20098;-71
2021/04/08 15:25:29;;;;;;;4.97;0.63;;;7.70;44.20;;;;;;5093236;28;20086;-73
2021/04/08 15:27:55;;;;;;;5.53;0.90;;;7.70;44.30;;;;;;5108164;22;20003;-69
2021/04/08 15:30:23;;;;;;;1.80;0.90;;;7.60;43.20;;;;;;5091862;28;20153;-69
2021/04/08 15:32:50;;;;;;;2.42;0.90;;;7.50;43.70;;;;;;5092454;28;20092;-69
2021/04/08 15:35:19;;;;;;;48.67;4.57;;;7.50;43.60;;;;;;5092675;28;20483;-70
2021/04/08 15:37:46;;;;;;;4.90;0.90;;;7.50;43.40;;;;;;5092451;28;20032;-69
2021/04/08 15:40:18;;;;;;;0.75;0.43;;;7.50;44.10;;;;;;5089798;28;20055;-69
2021/04/08 15:42:45;;;;;;;4.85;0.68;;;7.40;43.50;;;;;;5094589;28;20028;-69
2021/04/08 15:45:11;;;;;;;13.00;0.60;;;7.30;43.60;;;;;;5112697;28;20062;-69
2021/04/08 15:47:37;;;;;;;0.43;0.30;;;7.20;43.70;;;;;;5112068;28;20099;-69
2021/04/08 15:50:13;;;;;;;2.08;0.55;;;7.20;44.90;;;;;;5088804;27;20887;-71
2021/04/08 15:52:38;;;;;;;2.50;0.50;;;7.10;43.60;;;;;;5076277;28;20025;-72
2021/04/08 15:55:06;;;;;;;9.10;0.88;;;7.00;43.50;;;;;;5068386;28;20041;-70
2021/04/08 15:57:31;;;;;;;1.73;0.68;;;6.90;43.80;;;;;;5069359;28;20039;-70
2021/04/08 15:59:57;;;;;;;5.25;0.88;;;6.80;43.90;;;;;;5068948;28;20447;-70
2021/04/08 16:02:23;;;;;;;2.65;0.40;;;6.70;44.40;;;;;;5068735;28;20029;-70
2021/04/08 16:04:49;;;;;;;4.10;0.50;;;6.60;44.40;;;;;;5068835;28;20027;-70
2021/04/08 16:07:14;;;;;;;6.65;0.50;;;6.60;44.60;;;;;;5068872;28;20024;-72
2021/04/08 16:09:41;;;;;;;1.20;0.50;;;6.60;44.50;;;;;;5068837;28;20031;-71
2021/04/08 16:12:08;;;;;;;4.80;0.60;;;6.50;44.50;;;;;;5068559;28;20488;-68
2021/04/08 16:14:33;;;;;;;3.08;0.43;;;7.00;52.70;;;;;;5068751;28;20112;-71
2021/04/08 16:16:59;;;;;;;9.68;0.60;;;7.80;48.10;;;;;;5068519;28;20100;-71
2021/04/08 16:19:25;;;;;;;1.52;0.50;;;7.60;44.00;;;;;;5068641;28;20032;-71
2021/04/08 16:21:51;;;;;;;4.75;0.63;;;7.30;43.60;;;;;;5068384;28;20021;-71
2021/04/08 16:24:18;;;;;;;7.32;0.60;;;7.10;43.70;;;;;;5068570;28;20113;-71
2021/04/08 16:26:44;;;;;;;5.45;0.75;;;6.90;43.80;;;;;;5068253;28;20447;-71
2021/04/08 16:29:11;;;;;;;1.20;0.50;;;6.80;44.10;;;;;;5068581;28;20460;-70
2021/04/08 16:31:38;;;;;;;2.60;0.60;;;6.60;44.00;;;;;;5068283;28;20021;-70
2021/04/08 16:34:04;;;;;;;4.15;0.75;;;6.40;44.40;;;;;;5068177;28;20028;-70
2021/04/08 16:36:31;;;;;;;8.88;0.68;;;6.40;44.60;;;;;;5068457;28;20031;-70
2021/04/08 16:38:56;;;;;;;5.07;0.65;;;6.30;44.60;;;;;;5068395;28;20162;-70
2021/04/08 16:41:23;;;;;;;4.43;0.52;;;6.40;51.20;;;;;;5068420;28;20482;-70
2021/04/08 16:43:50;;;;;;;2.13;1.33;;;6.80;47.30;;;;;;5067555;28;20032;-69
2021/04/08 16:46:16;;;;;;;2.05;0.60;;;6.60;44.80;;;;;;5068277;28;20036;-69
2021/04/08 16:48:42;;;;;;;4.68;0.65;;;6.40;44.80;;;;;;5067687;28;20056;-70
2021/04/08 16:51:08;;;;;;;2.15;0.60;;;6.30;44.50;;;;;;5067814;28;20111;-70
2021/04/08 16:53:33;;;;;;;2.13;0.90;;;6.20;44.80;;;;;;5067502;28;20028;-70
2021/04/08 16:55:59;;;;;;;4.60;1.30;;;6.10;44.90;;;;;;5067739;28;20032;-69
2021/04/08 16:58:25;;;;;;;10.00;1.52;;;6.60;58.10;;;;;;5067886;28;20024;-70
2021/04/08 17:00:50;;;;;;;3.30;0.82;;;7.50;54.10;;;;;;5058207;28;20104;-70
2021/04/08 17:03:17;;;;;;;3.10;0.88;;;7.30;48.00;;;;;;5054467;28;20251;-69
2021/04/08 17:05:43;;;;;;;4.57;0.80;;;7.00;46.20;;;;;;5054523;28;20037;-70
2021/04/08 17:08:08;;;;;;;6.00;1.38;;;6.80;46.30;;;;;;5054159;28;20036;-70
2021/04/08 17:10:34;;;;;;;3.25;0.85;;;6.70;46.80;;;;;;5054610;28;20032;-70
2021/04/08 17:13:00;;;;;;;4.95;0.90;;;6.60;47.20;;;;;;5054195;28;20107;-70
2021/04/08 17:15:26;;;;;;;7.65;1.00;;;6.60;47.30;;;;;;5054302;28;20465;-70
2021/04/08 17:17:52;;;;;;;13.82;1.40;;;6.60;47.20;;;;;;5054314;28;20029;-70